Hovedside
METAR-TAF:

METAR-TAF

Lufthavner :

Palanga, Litauen

Palanga internasjonale lufthavn

breddegrad: 55-55-12N, lengdegrad: 021-03E, høyde over havet: 10 m

Gjeldene værobservasjon

Denne rapporten ble laget for 19 minutter siden, klokken 22:20 UTC
Vind 6 kt fra Nordøst
Temperatur 16°C
Luftfuktighet 82%
Trykk 1009 hPa
Sikt 10 km eller mer
ingen skyer under 1500 m og ingen bygeskyer

METAR: EYPA 242220Z 05006KT CAVOK 16/13 Q1009

Tid: 01:39 (22:39 UTC)

Varsel

Denne rapporten ble laget for 5 timer og 39 minutter siden, klokken 17:00 UTC
Varsel gyldig fra 24. klokken 18 UTC til 25. klokken 18 UTC
Vind 8 kt fra Øst-nordøst
Sikt: 6000 m
Brutte skyer i en høyde av 3500 ft
Sannsynlighet 40% :
Midlertidig
fra 24. klokken 21 UTC til 25. klokken 05 UTC
Sikt: 3000 m
Brutte skyer i en høyde av 500 ft
dis
Blir
fra 25. klokken 08 UTC til 25. klokken 09 UTC
Vind 18 kt fra Øst-nordøst

TAF: EYPA 241700Z 2418/2518 06008KT 6000 BKN035 PROB40 TEMPO 2421/2505 3000 BR BKN005 BECMG 2508/2509 07018KT

Værobservasjoner og værvarsel for over 4000 flyplasser (METAR- og TAF-rapporter).

Tilgjengelige stasjoner er representert av de røde og gule prikkene på kartet.

Hold musepekeren over prikken for å se navnet på stasjonen.

Klikk så for å se værobservasjoner og -varsler.

For å forandre kartet kan du klikke på den grønne knappen med svart kryss for å zoome inn, på den grønne knappen med strek for å zoome ut, eller på de grønne pilene for å se tilstøtende kart.


METAR-TAF: